Time;durP1;ratioP1;P1;durP2;ratioP2;P2;SDS_P1;SDS_P2;PMS_P1;PMS_P2;Temp;Humidity;BMP_temperature;BMP_pressure;BME280_temperature;BME280_humidity;BME280_pressure;Samples;Min_cycle;Max_cycle;Signal;HPM_P1;HPM_P2
2023/08/18 00:01:03;;;;;;;3.47;2.53;;;;;;;;;;5059547;28;20457;-70
2023/08/18 00:03:32;;;;;;;5.00;3.00;;;;;;;;;;5049057;28;20479;-70
2023/08/18 00:05:59;;;;;;;4.87;3.30;;;;;;;;;;5052476;28;20960;-70
2023/08/18 00:08:26;;;;;;;6.17;3.70;;;;;;;;;;5061016;28;20551;-70
2023/08/18 00:10:53;;;;;;;4.10;3.20;;;;;;;;;;5067483;28;20500;-70
2023/08/18 00:13:20;;;;;;;4.40;3.10;;;;;;;;;;5051800;28;20484;-70
2023/08/18 00:15:47;;;;;;;4.43;3.10;;;;;;;;;;5049698;28;20442;-70
2023/08/18 00:18:14;;;;;;;4.70;2.90;;;;;;;;;;5062040;28;20448;-68
2023/08/18 00:20:45;;;;;;;4.33;3.50;;;;;;;;;;5065052;28;20546;-70
2023/08/18 00:23:12;;;;;;;3.63;2.47;;;;;;;;;;5054462;28;20473;-68
2023/08/18 00:25:39;;;;;;;4.07;3.00;;;;;;;;;;5048387;28;20458;-71
2023/08/18 00:28:07;;;;;;;3.30;2.43;;;;;;;;;;5037212;28;20446;-70
2023/08/18 00:30:34;;;;;;;5.33;3.23;;;;;;;;;;5045736;28;20441;-70
2023/08/18 00:33:01;;;;;;;5.77;3.57;;;;;;;;;;5058034;28;20821;-70
2023/08/18 00:35:28;;;;;;;6.00;3.33;;;;;;;;;;5050932;28;20811;-70
2023/08/18 00:37:57;;;;;;;5.13;3.00;;;;;;;;;;5061761;28;20446;-70
2023/08/18 00:40:24;;;;;;;5.00;2.80;;;;;;;;;;5051477;28;20450;-70
2023/08/18 00:42:51;;;;;;;11.53;3.23;;;;;;;;;;5062657;28;20830;-70
2023/08/18 00:45:18;;;;;;;5.27;3.27;;;;;;;;;;5050103;28;20445;-70
2023/08/18 00:47:46;;;;;;;4.03;2.60;;;;;;;;;;5052573;28;20462;-70
2023/08/18 00:50:13;;;;;;;4.77;2.50;;;;;;;;;;5055042;28;20470;-70
2023/08/18 00:52:41;;;;;;;4.37;2.80;;;;;;;;;;5057672;28;20482;-70
2023/08/18 00:55:10;;;;;;;3.90;2.63;;;;;;;;;;5054143;28;20924;-70
2023/08/18 00:57:37;;;;;;;4.70;2.83;;;;;;;;;;5053838;28;20834;-70
2023/08/18 01:00:05;;;;;;;3.27;2.40;;;;;;;;;;5061272;28;20876;-69
2023/08/18 01:02:32;;;;;;;3.90;2.97;;;;;;;;;;5048118;28;20501;-69
2023/08/18 01:05:00;;;;;;;4.53;3.07;;;;;;;;;;5055896;28;20457;-69
2023/08/18 01:07:27;;;;;;;5.30;2.70;;;;;;;;;;5048901;28;20478;-69
2023/08/18 01:09:55;;;;;;;3.77;2.67;;;;;;;;;;5060771;28;20988;-69
2023/08/18 01:12:27;;;;;;;4.03;2.43;;;;;;;;;;5047745;28;20490;-69
2023/08/18 01:14:58;;;;;;;4.07;2.30;;;;;;;;;;5050199;28;20462;-69
2023/08/18 01:17:29;;;;;;;3.23;2.00;;;;;;;;;;5060921;28;20457;-69
2023/08/18 01:19:56;;;;;;;6.90;2.90;;;;;;;;;;5050542;28;20465;-69
2023/08/18 01:22:24;;;;;;;4.40;2.50;;;;;;;;;;5049686;28;20478;-70
2023/08/18 01:24:58;;;;;;;4.87;2.90;;;;;;;;;;5061712;28;20454;-70
2023/08/18 01:27:28;;;;;;;3.80;2.43;;;;;;;;;;5059765;28;20840;-70
2023/08/18 01:29:55;;;;;;;6.03;2.97;;;;;;;;;;5057485;28;20456;-70
2023/08/18 01:32:22;;;;;;;4.33;2.93;;;;;;;;;;5062635;28;20485;-70
2023/08/18 01:34:51;;;;;;;4.87;2.80;;;;;;;;;;5066738;28;20468;-69
2023/08/18 01:37:20;;;;;;;4.60;2.57;;;;;;;;;;5069916;28;20964;-69
2023/08/18 01:39:48;;;;;;;4.20;2.77;;;;;;;;;;5035573;28;20503;-68
2023/08/18 01:42:17;;;;;;;4.87;3.13;;;;;;;;;;5055604;28;20474;-68
2023/08/18 01:44:44;;;;;;;4.50;2.40;;;;;;;;;;5072372;28;20461;-69
2023/08/18 01:47:11;;;;;;;4.10;2.50;;;;;;;;;;5053027;28;20458;-69
2023/08/18 01:49:38;;;;;;;4.10;2.60;;;;;;;;;;5050276;28;21160;-69
2023/08/18 01:52:05;;;;;;;6.43;2.93;;;;;;;;;;5064557;28;20582;-70
2023/08/18 01:54:33;;;;;;;3.57;2.20;;;;;;;;;;5067784;28;20460;-70
2023/08/18 01:57:00;;;;;;;5.00;2.80;;;;;;;;;;5060450;28;20461;-70
2023/08/18 01:59:29;;;;;;;3.27;2.40;;;;;;;;;;5058506;28;20457;-69
2023/08/18 02:01:56;;;;;;;4.83;2.90;;;;;;;;;;5045386;28;20478;-70
2023/08/18 02:04:23;;;;;;;3.70;2.83;;;;;;;;;;5043052;28;20489;-69
2023/08/18 02:06:50;;;;;;;4.60;2.73;;;;;;;;;;5055625;28;20952;-70
2023/08/18 02:09:17;;;;;;;9.43;4.10;;;;;;;;;;5067281;28;20466;-69
2023/08/18 02:11:44;;;;;;;3.37;2.10;;;;;;;;;;5054434;28;20999;-70
2023/08/18 02:14:11;;;;;;;3.40;2.30;;;;;;;;;;5043272;28;20524;-69
2023/08/18 02:16:40;;;;;;;4.10;2.70;;;;;;;;;;5059643;28;20479;-69
2023/08/18 02:19:07;;;;;;;4.57;2.53;;;;;;;;;;5065212;28;21134;-70
2023/08/18 02:21:34;;;;;;;5.17;3.00;;;;;;;;;;5058008;28;20555;-69
2023/08/18 02:24:01;;;;;;;4.00;2.47;;;;;;;;;;5056718;28;20457;-69
2023/08/18 02:26:28;;;;;;;5.33;3.40;;;;;;;;;;5057807;28;20470;-68
2023/08/18 02:28:55;;;;;;;3.70;2.30;;;;;;;;;;5065092;28;20453;-68
2023/08/18 02:31:22;;;;;;;5.63;2.37;;;;;;;;;;5055710;28;20486;-70
2023/08/18 02:33:51;;;;;;;4.83;2.60;;;;;;;;;;5053078;28;20465;-70
2023/08/18 02:36:18;;;;;;;4.80;3.10;;;;;;;;;;5058049;28;20603;-70
2023/08/18 02:38:45;;;;;;;4.67;2.87;;;;;;;;;;5052169;28;20450;-68
2023/08/18 02:41:12;;;;;;;4.30;2.60;;;;;;;;;;5056385;28;20458;-70
2023/08/18 02:43:39;;;;;;;4.20;2.73;;;;;;;;;;5062059;28;20453;-70
2023/08/18 02:46:06;;;;;;;3.90;2.20;;;;;;;;;;5056708;28;20468;-69
2023/08/18 02:48:33;;;;;;;4.77;2.67;;;;;;;;;;5052890;28;20474;-69
2023/08/18 02:51:05;;;;;;;4.10;2.93;;;;;;;;;;5061109;28;20465;-69
2023/08/18 02:53:32;;;;;;;3.73;2.43;;;;;;;;;;5055337;28;20454;-69
2023/08/18 02:55:59;;;;;;;3.10;2.13;;;;;;;;;;5049875;28;20557;-68
2023/08/18 02:58:27;;;;;;;3.77;2.17;;;;;;;;;;5054082;28;20477;-69
2023/08/18 03:00:54;;;;;;;4.17;2.43;;;;;;;;;;5050068;28;20519;-69
2023/08/18 03:03:21;;;;;;;5.77;2.73;;;;;;;;;;5050987;28;20474;-70
2023/08/18 03:05:48;;;;;;;4.60;2.50;;;;;;;;;;5051612;28;20497;-70
2023/08/18 03:08:16;;;;;;;7.30;2.50;;;;;;;;;;5031792;28;20490;-70
2023/08/18 03:10:43;;;;;;;3.50;2.03;;;;;;;;;;5050818;28;20458;-69
2023/08/18 03:13:11;;;;;;;4.77;2.60;;;;;;;;;;5050741;28;20489;-70
2023/08/18 03:15:41;;;;;;;4.70;2.70;;;;;;;;;;5052964;28;20538;-69
2023/08/18 03:18:08;;;;;;;4.27;2.80;;;;;;;;;;5063630;28;20470;-69
2023/08/18 03:20:35;;;;;;;4.50;2.70;;;;;;;;;;5053790;28;20831;-68
2023/08/18 03:23:02;;;;;;;4.00;2.30;;;;;;;;;;5060057;28;20481;-70
2023/08/18 03:25:30;;;;;;;5.47;3.10;;;;;;;;;;5042949;28;20796;-69
2023/08/18 03:27:57;;;;;;;3.80;2.60;;;;;;;;;;5047621;28;20481;-68
2023/08/18 03:30:26;;;;;;;3.80;2.33;;;;;;;;;;5058887;28;20454;-69
2023/08/18 03:32:55;;;;;;;5.90;2.93;;;;;;;;;;5063632;28;20493;-69
2023/08/18 03:35:22;;;;;;;4.80;3.10;;;;;;;;;;5050178;28;20504;-69
2023/08/18 03:37:49;;;;;;;3.60;2.60;;;;;;;;;;5050532;28;20434;-69
2023/08/18 03:40:16;;;;;;;3.30;2.73;;;;;;;;;;5049167;28;20445;-69
2023/08/18 03:42:46;;;;;;;4.30;2.23;;;;;;;;;;5047642;28;20497;-69
2023/08/18 03:45:13;;;;;;;4.90;2.43;;;;;;;;;;5062648;28;20446;-69
2023/08/18 03:47:41;;;;;;;3.87;2.77;;;;;;;;;;5043241;28;20442;-70
2023/08/18 03:50:08;;;;;;;5.80;2.73;;;;;;;;;;5054556;28;20462;-69
2023/08/18 03:52:36;;;;;;;4.30;2.80;;;;;;;;;;5056006;28;20484;-69
2023/08/18 03:55:04;;;;;;;6.20;2.90;;;;;;;;;;5052880;28;20462;-71
2023/08/18 03:57:33;;;;;;;4.10;3.10;;;;;;;;;;5062407;28;20525;-70
2023/08/18 04:00:03;;;;;;;3.87;2.43;;;;;;;;;;5059831;28;20493;-70
2023/08/18 04:02:30;;;;;;;4.60;2.50;;;;;;;;;;5050573;28;20482;-69
2023/08/18 04:04:57;;;;;;;3.43;2.37;;;;;;;;;;5059273;28;20530;-70
2023/08/18 04:07:24;;;;;;;3.33;2.57;;;;;;;;;;5063750;28;20452;-69
2023/08/18 04:09:51;;;;;;;3.27;2.13;;;;;;;;;;5050262;28;20461;-69
2023/08/18 04:12:21;;;;;;;4.33;2.90;;;;;;;;;;5053405;28;20488;-70
2023/08/18 04:14:48;;;;;;;3.50;2.40;;;;;;;;;;5056046;28;20546;-69
2023/08/18 04:17:16;;;;;;;13.40;3.17;;;;;;;;;;5053548;28;20959;-70
2023/08/18 04:19:43;;;;;;;4.30;2.67;;;;;;;;;;5057093;28;20461;-70
2023/08/18 04:22:10;;;;;;;5.07;2.73;;;;;;;;;;5054077;28;20587;-71
2023/08/18 04:24:37;;;;;;;5.40;2.30;;;;;;;;;;5048781;28;20504;-69
2023/08/18 04:27:05;;;;;;;9.53;3.53;;;;;;;;;;5049240;28;20455;-69
2023/08/18 04:29:32;;;;;;;3.93;3.10;;;;;;;;;;5050007;28;20463;-69
2023/08/18 04:31:59;;;;;;;4.13;2.60;;;;;;;;;;5053190;28;20535;-69
2023/08/18 04:34:27;;;;;;;4.63;2.17;;;;;;;;;;5050142;28;20466;-70
2023/08/18 04:36:54;;;;;;;4.70;2.37;;;;;;;;;;5055430;28;20457;-69
2023/08/18 04:39:21;;;;;;;2.80;1.87;;;;;;;;;;5052232;28;20823;-69
2023/08/18 04:41:48;;;;;;;4.10;2.50;;;;;;;;;;5058588;28;21015;-70
2023/08/18 04:44:17;;;;;;;3.40;2.10;;;;;;;;;;5056186;28;21077;-69
2023/08/18 04:46:44;;;;;;;4.10;2.60;;;;;;;;;;5052994;28;20466;-70
2023/08/18 04:49:11;;;;;;;5.77;3.43;;;;;;;;;;5033789;28;20446;-70
2023/08/18 04:51:41;;;;;;;3.60;2.50;;;;;;;;;;5066476;28;20480;-69
2023/08/18 04:54:11;;;;;;;3.37;2.30;;;;;;;;;;5056090;28;20504;-69
2023/08/18 04:56:38;;;;;;;4.23;2.57;;;;;;;;;;5056270;28;20454;-68
2023/08/18 04:59:05;;;;;;;4.43;2.60;;;;;;;;;;5050753;28;20960;-70
2023/08/18 05:01:32;;;;;;;6.57;3.00;;;;;;;;;;5061800;28;20481;-70
2023/08/18 05:04:01;;;;;;;8.37;2.53;;;;;;;;;;5035328;28;20451;-70
2023/08/18 05:06:28;;;;;;;5.00;2.83;;;;;;;;;;5062450;28;20457;-70
2023/08/18 05:08:57;;;;;;;5.50;2.80;;;;;;;;;;5059287;28;20470;-70
2023/08/18 05:11:25;;;;;;;3.03;2.27;;;;;;;;;;5050774;28;20450;-69
2023/08/18 05:13:52;;;;;;;3.90;3.17;;;;;;;;;;5055012;28;20500;-70
2023/08/18 05:16:19;;;;;;;5.73;2.73;;;;;;;;;;5053974;28;20816;-70
2023/08/18 05:18:46;;;;;;;3.30;2.00;;;;;;;;;;5061753;28;20866;-70
2023/08/18 05:21:13;;;;;;;3.83;2.47;;;;;;;;;;5047227;28;20462;-71
2023/08/18 05:23:40;;;;;;;4.30;2.00;;;;;;;;;;5066639;28;20444;-69
2023/08/18 05:26:09;;;;;;;4.57;2.60;;;;;;;;;;5045381;28;20545;-69
2023/08/18 05:28:36;;;;;;;4.10;2.37;;;;;;;;;;5066760;28;20860;-71
2023/08/18 05:31:03;;;;;;;4.17;2.60;;;;;;;;;;5063900;28;20469;-71
2023/08/18 05:33:30;;;;;;;3.40;2.50;;;;;;;;;;5052629;28;20513;-71
2023/08/18 05:35:59;;;;;;;3.77;2.07;;;;;;;;;;5052666;28;20910;-69
2023/08/18 05:38:26;;;;;;;3.90;2.80;;;;;;;;;;5051283;28;20939;-70
2023/08/18 05:40:55;;;;;;;3.70;2.40;;;;;;;;;;5052693;28;20464;-71
2023/08/18 05:43:23;;;;;;;3.70;2.20;;;;;;;;;;5067151;28;20485;-71
2023/08/18 05:45:50;;;;;;;4.83;2.40;;;;;;;;;;5056554;28;20454;-71
2023/08/18 05:48:17;;;;;;;3.70;2.60;;;;;;;;;;5061107;28;20466;-71
2023/08/18 05:50:44;;;;;;;6.23;2.23;;;;;;;;;;5063810;28;20559;-70
2023/08/18 05:53:11;;;;;;;3.13;2.47;;;;;;;;;;5066334;28;20500;-70
2023/08/18 05:55:39;;;;;;;3.37;2.53;;;;;;;;;;5059899;28;20484;-73
2023/08/18 05:58:06;;;;;;;4.20;2.50;;;;;;;;;;5062032;28;20460;-70
2023/08/18 06:00:34;;;;;;;6.83;2.70;;;;;;;;;;5050016;28;20438;-70
2023/08/18 06:03:02;;;;;;;4.83;2.67;;;;;;;;;;5052009;28;20478;-71
2023/08/18 06:05:29;;;;;;;3.77;2.60;;;;;;;;;;5047624;28;20455;-70
2023/08/18 06:07:56;;;;;;;6.50;2.83;;;;;;;;;;5052944;28;20472;-68
2023/08/18 06:10:24;;;;;;;3.77;2.60;;;;;;;;;;5062656;28;20445;-71
2023/08/18 06:12:52;;;;;;;3.23;2.50;;;;;;;;;;5052894;28;20481;-70
2023/08/18 06:15:20;;;;;;;4.37;2.77;;;;;;;;;;5051879;28;20454;-70
2023/08/18 06:17:49;;;;;;;5.27;2.70;;;;;;;;;;5064112;28;20445;-71
2023/08/18 06:20:16;;;;;;;3.60;2.30;;;;;;;;;;5060385;28;20465;-70
2023/08/18 06:22:43;;;;;;;3.77;2.90;;;;;;;;;;5068385;28;20464;-70
2023/08/18 06:25:11;;;;;;;3.00;2.17;;;;;;;;;;5057884;28;20446;-70
2023/08/18 06:27:44;;;;;;;3.80;2.40;;;;;;;;;;5052271;28;20454;-71
2023/08/18 06:30:11;;;;;;;3.63;2.10;;;;;;;;;;5053352;28;20476;-70
2023/08/18 06:32:39;;;;;;;3.70;2.17;;;;;;;;;;5058651;28;20517;-70
2023/08/18 06:35:08;;;;;;;4.10;2.43;;;;;;;;;;5056257;28;20882;-69
2023/08/18 06:37:35;;;;;;;3.90;2.10;;;;;;;;;;5049958;28;20462;-70
2023/08/18 06:40:02;;;;;;;3.43;2.10;;;;;;;;;;5046405;28;20828;-70
2023/08/18 06:42:30;;;;;;;4.20;2.27;;;;;;;;;;5048791;28;20860;-70
2023/08/18 06:44:57;;;;;;;5.30;2.70;;;;;;;;;;5054089;28;20458;-71
2023/08/18 06:47:24;;;;;;;3.50;1.83;;;;;;;;;;5048702;28;20454;-70
2023/08/18 06:49:51;;;;;;;3.87;3.50;;;;;;;;;;5050719;28;20450;-71
2023/08/18 06:52:20;;;;;;;3.73;2.60;;;;;;;;;;5052049;28;20470;-71
2023/08/18 06:54:47;;;;;;;3.50;2.53;;;;;;;;;;5049318;28;20923;-70
2023/08/18 06:57:14;;;;;;;3.33;2.67;;;;;;;;;;5050359;28;20458;-71
2023/08/18 06:59:42;;;;;;;5.00;2.20;;;;;;;;;;5065862;28;20986;-69
2023/08/18 07:02:09;;;;;;;3.20;2.37;;;;;;;;;;5052583;28;20489;-70
2023/08/18 07:04:36;;;;;;;3.80;2.27;;;;;;;;;;5062213;28;21002;-71
2023/08/18 07:07:04;;;;;;;2.37;1.70;;;;;;;;;;5059722;28;20579;-70
2023/08/18 07:09:32;;;;;;;4.40;2.80;;;;;;;;;;5047115;28;20562;-70
2023/08/18 07:12:00;;;;;;;3.23;1.90;;;;;;;;;;5044334;28;20471;-70
2023/08/18 07:14:28;;;;;;;3.50;1.87;;;;;;;;;;5054315;28;20509;-72
2023/08/18 07:16:55;;;;;;;3.80;2.33;;;;;;;;;;5055854;28;20483;-71
2023/08/18 07:19:22;;;;;;;2.50;1.90;;;;;;;;;;5058070;28;20894;-70
2023/08/18 07:21:51;;;;;;;2.67;1.80;;;;;;;;;;5057795;28;21017;-70
2023/08/18 07:24:18;;;;;;;5.00;2.50;;;;;;;;;;5051658;28;20452;-70
2023/08/18 07:26:46;;;;;;;4.23;2.47;;;;;;;;;;5050612;28;20533;-70
2023/08/18 07:29:13;;;;;;;2.50;1.80;;;;;;;;;;5056783;28;20448;-69
2023/08/18 07:31:42;;;;;;;4.03;2.70;;;;;;;;;;5063596;28;20464;-70
2023/08/18 07:34:09;;;;;;;4.27;2.07;;;;;;;;;;5065180;28;20580;-70
2023/08/18 07:36:36;;;;;;;3.70;2.60;;;;;;;;;;5060401;28;20449;-69
2023/08/18 07:39:04;;;;;;;3.30;2.17;;;;;;;;;;5069274;28;20916;-69
2023/08/18 07:41:31;;;;;;;2.73;1.50;;;;;;;;;;5066453;28;20489;-70
2023/08/18 07:43:59;;;;;;;3.30;1.60;;;;;;;;;;5055714;28;20438;-70
2023/08/18 07:46:26;;;;;;;3.17;1.50;;;;;;;;;;5062823;28;20442;-70
2023/08/18 07:48:54;;;;;;;2.57;1.60;;;;;;;;;;5054872;28;20460;-70
2023/08/18 07:51:21;;;;;;;3.07;1.53;;;;;;;;;;5058778;28;20446;-70
2023/08/18 07:53:48;;;;;;;2.97;1.70;;;;;;;;;;5048071;28;20478;-70
2023/08/18 07:56:15;;;;;;;2.50;1.60;;;;;;;;;;5049371;28;20462;-69
2023/08/18 07:58:42;;;;;;;3.30;1.53;;;;;;;;;;5035919;28;20480;-70
2023/08/18 08:01:11;;;;;;;4.17;1.80;;;;;;;;;;5056438;28;20457;-70
2023/08/18 08:03:39;;;;;;;2.40;1.43;;;;;;;;;;5052148;28;20458;-69
2023/08/18 08:06:06;;;;;;;2.37;1.50;;;;;;;;;;5064544;28;20947;-70
2023/08/18 08:08:33;;;;;;;2.43;1.33;;;;;;;;;;5060998;28;20465;-71
2023/08/18 08:11:00;;;;;;;2.63;1.40;;;;;;;;;;5057526;28;20453;-70
2023/08/18 08:13:27;;;;;;;4.40;1.97;;;;;;;;;;5055490;28;20477;-70
2023/08/18 08:15:55;;;;;;;3.13;1.80;;;;;;;;;;5049180;28;20462;-71
2023/08/18 08:18:24;;;;;;;2.00;1.03;;;;;;;;;;5049597;28;20458;-68
2023/08/18 08:20:51;;;;;;;2.43;1.47;;;;;;;;;;5055144;28;20481;-70
2023/08/18 08:23:18;;;;;;;3.80;1.70;;;;;;;;;;5065255;28;20867;-70
2023/08/18 08:25:47;;;;;;;2.90;1.87;;;;;;;;;;5052281;28;20512;-70
2023/08/18 08:28:16;;;;;;;2.63;1.53;;;;;;;;;;5059428;28;20461;-70
2023/08/18 08:30:44;;;;;;;3.20;1.57;;;;;;;;;;5052144;28;20458;-70
2023/08/18 08:33:11;;;;;;;2.57;1.33;;;;;;;;;;5052412;28;20488;-70
2023/08/18 08:35:40;;;;;;;2.60;1.60;;;;;;;;;;5062209;28;20449;-70
2023/08/18 08:38:07;;;;;;;2.40;1.30;;;;;;;;;;5047512;28;20654;-69
2023/08/18 08:40:34;;;;;;;2.50;1.60;;;;;;;;;;5067336;28;20576;-70
2023/08/18 08:43:01;;;;;;;3.00;1.40;;;;;;;;;;5059739;28;20857;-70
2023/08/18 08:45:28;;;;;;;2.60;1.73;;;;;;;;;;5058304;28;20464;-70
2023/08/18 08:47:57;;;;;;;1.70;1.10;;;;;;;;;;5055074;28;20461;-70
2023/08/18 08:50:27;;;;;;;2.10;1.10;;;;;;;;;;5057430;28;20894;-70
2023/08/18 08:52:59;;;;;;;2.17;1.27;;;;;;;;;;5053051;28;20504;-70
2023/08/18 08:55:28;;;;;;;2.20;1.23;;;;;;;;;;5059263;28;20458;-70
2023/08/18 08:57:55;;;;;;;2.67;1.37;;;;;;;;;;5053439;28;20840;-70
2023/08/18 09:00:23;;;;;;;3.63;1.63;;;;;;;;;;5057809;28;20453;-70
2023/08/18 09:02:50;;;;;;;2.50;1.70;;;;;;;;;;5057479;28;20565;-69
2023/08/18 09:05:17;;;;;;;2.90;1.40;;;;;;;;;;5062404;28;20518;-70
2023/08/18 09:07:44;;;;;;;2.07;1.40;;;;;;;;;;5051578;28;20457;-70
2023/08/18 09:10:13;;;;;;;3.90;1.53;;;;;;;;;;5061015;28;20456;-70
2023/08/18 09:12:40;;;;;;;2.70;1.57;;;;;;;;;;5067173;28;20472;-70
2023/08/18 09:15:09;;;;;;;3.10;1.50;;;;;;;;;;5055106;28;20983;-70
2023/08/18 09:17:37;;;;;;;3.20;1.37;;;;;;;;;;5050123;28;20630;-70
2023/08/18 09:20:05;;;;;;;1.93;1.30;;;;;;;;;;5053150;28;20835;-70
2023/08/18 09:22:32;;;;;;;1.90;1.20;;;;;;;;;;5054607;28;20901;-70
2023/08/18 09:24:59;;;;;;;2.30;1.03;;;;;;;;;;5060072;28;20454;-70
2023/08/18 09:27:29;;;;;;;1.73;1.00;;;;;;;;;;5052176;28;20462;-69
2023/08/18 09:29:58;;;;;;;2.73;1.20;;;;;;;;;;5052929;28;20568;-70
2023/08/18 09:32:27;;;;;;;1.83;1.20;;;;;;;;;;5065340;28;20530;-70
2023/08/18 09:34:56;;;;;;;2.73;1.20;;;;;;;;;;5052104;28;20474;-70
2023/08/18 09:37:30;;;;;;;3.13;1.37;;;;;;;;;;5060971;28;20545;-70
2023/08/18 09:39:59;;;;;;;1.70;1.13;;;;;;;;;;5065198;28;20915;-70
2023/08/18 09:42:28;;;;;;;2.40;1.17;;;;;;;;;;5057685;28;20542;-71
2023/08/18 09:44:56;;;;;;;2.03;1.23;;;;;;;;;;5057689;28;20949;-69
2023/08/18 09:47:24;;;;;;;2.60;1.63;;;;;;;;;;5047158;28;20831;-70
2023/08/18 09:49:52;;;;;;;2.83;1.47;;;;;;;;;;5053343;28;20837;-70
2023/08/18 09:52:20;;;;;;;2.03;1.03;;;;;;;;;;5064383;28;20508;-70
2023/08/18 09:54:51;;;;;;;1.70;1.10;;;;;;;;;;5062140;28;21007;-70
2023/08/18 09:57:19;;;;;;;3.03;1.03;;;;;;;;;;5050649;28;20547;-70
2023/08/18 09:59:51;;;;;;;2.63;1.10;;;;;;;;;;5057281;28;20542;-71
2023/08/18 10:02:20;;;;;;;2.90;1.27;;;;;;;;;;5056257;28;21006;-70
2023/08/18 10:04:47;;;;;;;2.53;1.40;;;;;;;;;;5057921;28;20947;-71
2023/08/18 10:07:17;;;;;;;1.93;1.20;;;;;;;;;;5064501;28;20449;-70
2023/08/18 10:09:45;;;;;;;3.20;1.90;;;;;;;;;;5061838;28;20479;-71
2023/08/18 10:12:13;;;;;;;2.80;1.60;;;;;;;;;;5051638;28;20480;-70
2023/08/18 10:14:40;;;;;;;1.90;1.30;;;;;;;;;;5057686;28;20480;-70
2023/08/18 10:17:09;;;;;;;2.33;1.30;;;;;;;;;;5051911;28;20452;-70
2023/08/18 10:19:48;;;;;;;5.00;1.40;;;;;;;;;;5049691;28;20465;-70
2023/08/18 10:22:16;;;;;;;4.70;1.73;;;;;;;;;;5059787;28;21011;-71
2023/08/18 10:24:45;;;;;;;5.37;1.37;;;;;;;;;;5067774;28;20509;-70
2023/08/18 10:27:13;;;;;;;1.83;1.23;;;;;;;;;;5059319;28;20457;-71
2023/08/18 10:29:43;;;;;;;2.70;1.53;;;;;;;;;;5060885;28;20479;-71
2023/08/18 10:32:13;;;;;;;2.33;1.27;;;;;;;;;;5059708;28;20860;-72
2023/08/18 10:34:40;;;;;;;2.60;1.20;;;;;;;;;;5059566;28;20606;-71
2023/08/18 10:37:08;;;;;;;2.20;1.30;;;;;;;;;;5056533;28;20860;-71
2023/08/18 10:39:37;;;;;;;2.37;1.47;;;;;;;;;;5056975;28;20948;-72
2023/08/18 10:42:13;;;;;;;2.17;1.47;;;;;;;;;;5057831;28;20501;-69
2023/08/18 10:44:56;;;;;;;1.70;1.10;;;;;;;;;;5056222;28;20456;-70
2023/08/18 10:47:32;;;;;;;2.10;1.30;;;;;;;;;;5058593;28;20234;-71
2023/08/18 10:49:59;;;;;;;2.20;1.30;;;;;;;;;;5063623;28;20201;-68
2023/08/18 10:52:28;;;;;;;3.00;1.20;;;;;;;;;;5079343;28;20502;-71
2023/08/18 10:54:57;;;;;;;2.77;1.43;;;;;;;;;;5075649;28;20219;-69
2023/08/18 10:57:24;;;;;;;2.17;1.40;;;;;;;;;;5058501;28;20203;-70
2023/08/18 10:59:51;;;;;;;2.33;1.13;;;;;;;;;;5050814;28;20199;-70
2023/08/18 11:02:18;;;;;;;1.80;0.90;;;;;;;;;;5057305;28;20246;-70
2023/08/18 11:04:51;;;;;;;2.57;1.57;;;;;;;;;;5031729;28;20290;-71
2023/08/18 11:07:20;;;;;;;1.92;1.08;;;;;;;;;;5060903;28;20585;-71
2023/08/18 11:09:47;;;;;;;2.00;1.50;;;;;;;;;;5051610;28;20207;-71
2023/08/18 11:12:16;;;;;;;1.60;0.90;;;;;;;;;;5057065;28;20218;-69
2023/08/18 11:14:43;;;;;;;2.43;1.33;;;;;;;;;;5053663;28;20241;-70
2023/08/18 11:17:11;;;;;;;2.05;1.10;;;;;;;;;;5057435;28;20202;-70
2023/08/18 11:19:40;;;;;;;1.88;1.27;;;;;;;;;;5057090;28;20225;-70
2023/08/18 11:22:08;;;;;;;1.70;0.90;;;;;;;;;;5052263;28;20581;-72
2023/08/18 11:24:35;;;;;;;4.30;1.63;;;;;;;;;;5049725;28;20669;-70
2023/08/18 11:27:03;;;;;;;1.50;1.00;;;;;;;;;;5050431;28;20199;-70
2023/08/18 11:29:31;;;;;;;1.87;1.00;;;;;;;;;;5059659;28;20199;-69
2023/08/18 11:31:58;;;;;;;3.10;1.20;;;;;;;;;;5058739;28;20231;-70
2023/08/18 11:34:25;;;;;;;3.45;1.17;;;;;;;;;;5054366;28;20368;-70
2023/08/18 11:37:00;;;;;;;2.50;1.57;;;;;;;;;;5059116;28;20210;-70
2023/08/18 11:39:30;;;;;;;2.60;1.10;;;;;;;;;;5059700;28;20623;-70
2023/08/18 11:41:58;;;;;;;2.53;1.40;;;;;;;;;;5057485;28;20219;-70
2023/08/18 11:44:25;;;;;;;3.85;1.05;;;;;;;;;;5063022;28;20669;-70
2023/08/18 11:46:54;;;;;;;2.35;1.00;;;;;;;;;;5059111;28;20649;-71
2023/08/18 11:49:22;;;;;;;6.50;1.30;;;;;;;;;;5057902;28;20286;-71
2023/08/18 11:51:55;;;;;;;2.53;1.65;;;;;;;;;;5053575;28;20673;-70
2023/08/18 11:54:23;;;;;;;2.20;1.30;;;;;;;;;;5054150;28;20320;-71
2023/08/18 11:56:52;;;;;;;2.53;1.20;;;;;;;;;;5054574;28;20200;-71
2023/08/18 11:59:20;;;;;;;2.17;1.60;;;;;;;;;;5048570;28;20214;-70
2023/08/18 12:01:47;;;;;;;2.00;1.65;;;;;;;;;;5057023;28;20330;-71
2023/08/18 12:04:15;;;;;;;4.85;1.15;;;;;;;;;;5052592;28;20200;-71
2023/08/18 12:06:42;;;;;;;2.33;1.35;;;;;;;;;;5049136;28;20199;-70
2023/08/18 12:09:12;;;;;;;2.45;1.10;;;;;;;;;;5067291;28;20209;-71
2023/08/18 12:11:39;;;;;;;3.47;1.92;;;;;;;;;;5055470;28;20227;-71
2023/08/18 12:14:08;;;;;;;3.67;1.10;;;;;;;;;;5049358;28;20195;-69
2023/08/18 12:16:35;;;;;;;1.77;1.15;;;;;;;;;;5056757;28;20342;-70
2023/08/18 12:19:04;;;;;;;1.67;0.98;;;;;;;;;;5058543;28;20207;-71
2023/08/18 12:21:31;;;;;;;2.78;1.42;;;;;;;;;;5048451;28;20265;-70
2023/08/18 12:23:59;;;;;;;1.77;1.15;;;;;;;;;;5048473;28;20605;-71
2023/08/18 12:26:26;;;;;;;3.00;1.20;;;;;;;;;;5054326;28;20195;-70
2023/08/18 12:28:53;;;;;;;2.90;1.15;;;;;;;;;;5059348;28;20202;-71
2023/08/18 12:31:24;;;;;;;2.38;1.30;;;;;;;;;;5054718;28;20222;-70
2023/08/18 12:33:51;;;;;;;2.38;1.45;;;;;;;;;;5052465;28;20226;-70
2023/08/18 12:36:20;;;;;;;1.70;1.02;;;;;;;;;;5057114;28;20218;-70
2023/08/18 12:38:47;;;;;;;1.80;1.30;;;;;;;;;;5058371;28;20717;-70
2023/08/18 12:41:14;;;;;;;2.50;1.30;;;;;;;;;;5053808;28;20195;-71
2023/08/18 12:43:42;;;;;;;2.38;1.13;;;;;;;;;;5056150;28;20222;-71
2023/08/18 12:46:09;;;;;;;2.03;1.20;;;;;;;;;;5051976;28;20199;-71
2023/08/18 12:48:38;;;;;;;5.00;1.63;;;;;;;;;;5060880;28;20578;-71
2023/08/18 12:51:05;;;;;;;1.70;1.10;;;;;;;;;;5055425;28;20202;-71
2023/08/18 12:53:32;;;;;;;1.40;0.85;;;;;;;;;;5050134;28;20196;-71
2023/08/18 12:55:59;;;;;;;2.15;1.48;;;;;;;;;;5060674;28;20226;-70
2023/08/18 12:58:26;;;;;;;2.33;1.55;;;;;;;;;;5048725;28;20344;-71
2023/08/18 13:00:53;;;;;;;2.95;1.50;;;;;;;;;;5064861;28;20195;-71
2023/08/18 13:03:20;;;;;;;2.33;1.10;;;;;;;;;;5053069;28;20223;-71
2023/08/18 13:05:48;;;;;;;2.08;1.30;;;;;;;;;;5052738;28;20579;-71
2023/08/18 13:08:15;;;;;;;1.98;1.25;;;;;;;;;;5048052;28;20202;-71
2023/08/18 13:10:42;;;;;;;3.25;1.40;;;;;;;;;;5063448;28;20253;-72
2023/08/18 13:13:09;;;;;;;1.85;1.13;;;;;;;;;;5048800;28;20697;-72
2023/08/18 13:15:37;;;;;;;4.32;1.42;;;;;;;;;;5057125;28;20653;-71
2023/08/18 13:18:04;;;;;;;3.45;1.10;;;;;;;;;;5052329;28;20594;-70
2023/08/18 13:20:31;;;;;;;2.65;1.50;;;;;;;;;;5055121;28;20199;-71
2023/08/18 13:23:03;;;;;;;2.40;1.58;;;;;;;;;;5050726;28;20233;-71
2023/08/18 13:25:34;;;;;;;2.92;1.50;;;;;;;;;;5049940;28;20203;-70
2023/08/18 13:28:03;;;;;;;2.17;1.25;;;;;;;;;;5056475;28;20246;-70
2023/08/18 13:30:31;;;;;;;2.42;1.73;;;;;;;;;;5058565;28;20206;-71
2023/08/18 13:32:58;;;;;;;3.15;1.42;;;;;;;;;;5049565;28;20215;-70
2023/08/18 13:35:25;;;;;;;2.35;1.55;;;;;;;;;;5050612;28;20541;-71
2023/08/18 13:37:55;;;;;;;2.70;1.35;;;;;;;;;;5067433;28;20649;-71
2023/08/18 13:40:25;;;;;;;2.20;1.17;;;;;;;;;;5060206;28;20195;-71
2023/08/18 13:42:53;;;;;;;2.63;1.38;;;;;;;;;;5056036;28;20223;-70
2023/08/18 13:45:21;;;;;;;2.42;1.30;;;;;;;;;;5060673;28;20206;-70
2023/08/18 13:47:48;;;;;;;2.20;1.15;;;;;;;;;;5064003;28;20194;-71
2023/08/18 13:50:16;;;;;;;2.92;1.45;;;;;;;;;;5043532;28;20195;-71
2023/08/18 13:52:43;;;;;;;3.25;1.45;;;;;;;;;;5065032;28;20223;-71
2023/08/18 13:55:10;;;;;;;3.45;1.33;;;;;;;;;;5053911;28;20215;-71
2023/08/18 13:57:38;;;;;;;3.05;1.50;;;;;;;;;;5056329;28;20661;-72
2023/08/18 14:00:06;;;;;;;2.45;1.55;;;;;;;;;;5148514;22;20445;-70
2023/08/18 14:02:33;;;;;;;2.85;1.80;;;;;;;;;;5327506;22;20218;-70
2023/08/18 14:05:00;;;;;;;2.67;1.30;;;;;;;;;;5159091;22;20249;-70
2023/08/18 14:07:27;;;;;;;2.78;1.90;;;;;;;;;;5092242;28;20198;-70
2023/08/18 14:09:54;;;;;;;2.35;1.38;;;;;;;;;;5105146;28;20202;-70
2023/08/18 14:12:22;;;;;;;3.38;1.48;;;;;;;;;;5094986;28;20217;-70
2023/08/18 14:14:50;;;;;;;2.78;1.00;;;;;;;;;;5095174;28;20205;-71
2023/08/18 14:17:32;;;;;;;6.65;1.60;;;;;;;;;;5103050;28;20228;-71
2023/08/18 14:19:59;;;;;;;2.08;1.23;;;;;;;;;;5106189;28;20197;-71
2023/08/18 14:22:26;;;;;;;2.75;1.80;;;;;;;;;;5097165;28;20590;-70
2023/08/18 14:24:53;;;;;;;3.72;1.80;;;;;;;;;;5101123;28;20217;-71
2023/08/18 14:27:20;;;;;;;4.30;1.55;;;;;;;;;;5094988;28;20206;-71
2023/08/18 14:29:50;;;;;;;2.15;1.23;;;;;;;;;;5103975;28;20578;-70
2023/08/18 14:32:17;;;;;;;1.90;1.20;;;;;;;;;;5093374;28;20226;-70
2023/08/18 14:34:46;;;;;;;1.92;1.40;;;;;;;;;;5104825;28;20201;-69
2023/08/18 14:37:14;;;;;;;4.50;1.65;;;;;;;;;;5090119;28;20226;-69
2023/08/18 14:39:41;;;;;;;2.15;1.55;;;;;;;;;;5106401;28;20293;-70
2023/08/18 14:42:09;;;;;;;2.92;1.60;;;;;;;;;;5091313;28;20225;-70
2023/08/18 14:44:36;;;;;;;2.28;1.50;;;;;;;;;;5096682;28;20202;-71
2023/08/18 14:47:04;;;;;;;2.20;1.42;;;;;;;;;;5101491;28;20197;-71